Current Conditions
Snow
Showers



Pressure
1023.92 (mb) - 30.24 (inHG)
Visibility

10.0 (km) - 6.2 (miles)
Temperature
2  °C
Temperature
0  °C
Dewpoint
87  %
 Humidity
Wind Speed
4.5  m/s
10  mph
16  km/h
9  kts
Wind Direction
N
45°
E
90°
135°
S
180°
225°
W
270°
315°
 250°

West South
West
Airport Data
ENAL
Ă…lesund Airport, Vigra
Metar :ENAL 171520Z 25009KT 9999 -RASN SCT015 BKN020 02/M00 Q1024
Mon 17th January 16:20 pm
Raw Metar Info
Raw METAR is the most common format in the world for the transmission of observational weather data. It is highly standardized through the International Civil Aviation Organization (ICAO), which allows it to be understood throughout most of the world.
API Info
Data Provided by
https://www.checkwx.com/weather/ENAL

Aviation Weather providing METAR, TAF, AIRMET, SIGMET and OUTLOOK Weather Reports
© Info
CSS/SVG/PHP scripts were developed by weather34.com for use in the weather34 template © 2015-2022

Guide Info provided by Metar-Wikipedia